KCDW/CDW METAR and TAF weather

Enter ICAO airport designator
Station Type Date Time Source
KCDW METAR 2021/01/27 13:53 UTC NOAA

KCDW 271353Z 33008KT 10SM FEW037 02/M04 A3000 RMK AO2 SLP166 T00221039


Station Type Date Time Source
KCDW Decoded METAR 2021/01/27 13:53 UTC NOAA

CALDWELL ESSEX COUNTY AIRPORT , NJ, United States (KCDW) 40-53N 074-17W 64M
Jan 27, 2021 - 08:53 AM EST / 2021.01.27 1353 UTC
Wind: from the NNW (330 degrees) at 9 MPH (8 KT):0
Visibility: 10 mile(s):0
Sky conditions: mostly clear
Temperature: 36.0 F (2.2 C)
Dew Point: 25.0 F (-3.9 C)
Relative Humidity: 63%
Pressure (altimeter): 30 in. Hg (1015 hPa)
ob: KCDW 271353Z 33008KT 10SM FEW037 02/M04 A3000 RMK AO2 SLP166 T00221039
cycle: 14

Station Type Date Time Source
KCDW TAF UTC NOAA

Error!

Example: see airport list